Time;durP1;ratioP1;P1;durP2;ratioP2;P2;SDS_P1;SDS_P2;PMS_P1;PMS_P2;Temp;Humidity;BMP_temperature;BMP_pressure;BME280_temperature;BME280_humidity;BME280_pressure;Samples;Min_cycle;Max_cycle;Signal;HPM_P1;HPM_P2
2023/11/24 00:00:40;;;;;;;19.67;1.45;;;9.70;99.90;;;;;;5017957;28;20120;-89
2023/11/24 00:03:07;;;;;;;13.93;0.85;;;9.60;99.90;;;;;;5012238;28;20124;-89
2023/11/24 00:05:32;;;;;;;14.77;1.60;;;9.50;99.90;;;;;;5013345;28;20029;-89
2023/11/24 00:07:58;;;;;;;7.88;0.70;;;9.40;99.90;;;;;;5015903;28;20396;-89
2023/11/24 00:10:28;;;;;;;11.45;0.80;;;9.40;99.90;;;;;;5015565;28;20072;-89
2023/11/24 00:12:54;;;;;;;12.85;0.77;;;9.20;99.90;;;;;;5019205;28;20029;-89
2023/11/24 00:15:20;;;;;;;9.70;0.80;;;9.10;99.90;;;;;;5015809;28;20052;-89
2023/11/24 00:17:45;;;;;;;8.77;0.70;;;9.00;99.90;;;;;;5015627;28;20045;-89
2023/11/24 00:20:14;;;;;;;14.52;1.55;;;9.00;99.90;;;;;;5024819;28;20032;-88
2023/11/24 00:22:39;;;;;;;7.53;0.52;;;8.90;99.90;;;;;;5018284;28;20032;-89
2023/11/24 00:25:06;;;;;;;7.93;0.50;;;8.80;99.90;;;;;;5015472;28;20033;-89
2023/11/24 00:27:32;;;;;;;9.57;0.70;;;8.80;99.90;;;;;;5021983;28;20025;-89
2023/11/24 00:29:57;;;;;;;9.30;0.55;;;8.80;99.90;;;;;;5015234;28;20533;-89
2023/11/24 00:32:23;;;;;;;9.38;0.65;;;8.80;99.90;;;;;;5007659;28;20029;-88
2023/11/24 00:34:49;;;;;;;9.82;0.50;;;8.70;99.90;;;;;;5009075;28;20474;-89
2023/11/24 00:37:14;;;;;;;11.05;1.10;;;8.70;99.90;;;;;;5011147;28;20033;-88
2023/11/24 00:39:40;;;;;;;6.57;0.60;;;8.60;99.90;;;;;;5031370;28;20367;-89
2023/11/24 00:42:07;;;;;;;10.48;0.82;;;8.60;99.90;;;;;;5026554;28;20025;-89
2023/11/24 00:44:33;;;;;;;8.75;0.93;;;8.60;99.90;;;;;;5009919;28;20022;-88
2023/11/24 00:46:59;;;;;;;7.78;0.57;;;8.60;99.90;;;;;;5028455;28;20041;-88
2023/11/24 00:49:24;;;;;;;8.70;0.77;;;8.60;99.90;;;;;;5014910;28;20022;-89
2023/11/24 00:51:50;;;;;;;9.45;0.63;;;8.60;99.90;;;;;;5015230;28;20028;-89
2023/11/24 00:54:16;;;;;;;6.55;0.63;;;8.60;99.90;;;;;;5014332;28;20038;-88
2023/11/24 00:56:41;;;;;;;8.18;1.02;;;8.60;99.90;;;;;;5013006;28;20030;-89
2023/11/24 00:59:07;;;;;;;7.90;0.88;;;8.60;99.90;;;;;;5014327;28;20116;-88
2023/11/24 01:01:32;;;;;;;9.70;0.93;;;8.60;99.90;;;;;;5031625;28;20021;-88
2023/11/24 01:03:58;;;;;;;6.88;0.55;;;8.60;99.90;;;;;;5014048;28;20025;-89
2023/11/24 01:06:24;;;;;;;7.90;0.82;;;8.60;99.90;;;;;;5013438;28;20392;-89
2023/11/24 01:08:50;;;;;;;8.15;0.80;;;8.60;99.90;;;;;;5014363;28;20029;-88
2023/11/24 01:11:16;;;;;;;11.02;0.40;;;8.60;99.90;;;;;;5025259;28;20029;-89
2023/11/24 01:13:41;;;;;;;10.32;0.80;;;8.50;99.90;;;;;;5021379;28;20503;-88
2023/11/24 01:16:08;;;;;;;9.30;0.50;;;8.50;99.90;;;;;;5010108;28;20026;-88
2023/11/24 01:18:37;;;;;;;8.38;1.25;;;8.40;99.90;;;;;;5014256;28;20048;-88
2023/11/24 01:21:03;;;;;;;10.93;0.50;;;8.40;99.90;;;;;;5024008;28;20041;-88
2023/11/24 01:23:29;;;;;;;7.22;0.40;;;8.30;99.90;;;;;;5031079;28;20487;-89
2023/11/24 01:25:55;;;;;;;6.97;0.40;;;8.30;99.90;;;;;;5013202;28;20021;-88
2023/11/24 01:28:22;;;;;;;5.25;0.40;;;8.30;99.90;;;;;;5013629;28;20093;-88
2023/11/24 01:30:48;;;;;;;7.20;0.77;;;8.20;99.90;;;;;;5032615;28;20025;-89
2023/11/24 01:33:14;;;;;;;9.93;0.68;;;8.10;99.90;;;;;;5012569;28;20056;-89
2023/11/24 01:35:39;;;;;;;6.78;0.50;;;8.10;99.90;;;;;;5016288;28;20113;-89
2023/11/24 01:38:05;;;;;;;4.75;0.35;;;8.00;99.90;;;;;;5014529;28;20038;-88
2023/11/24 01:40:34;;;;;;;8.35;0.40;;;8.00;99.90;;;;;;5012205;28;20033;-88
2023/11/24 01:43:00;;;;;;;6.00;0.40;;;8.00;99.90;;;;;;5018381;28;20022;-88
2023/11/24 01:45:25;;;;;;;10.38;0.40;;;7.90;99.90;;;;;;5017726;28;20029;-89
2023/11/24 01:47:53;;;;;;;6.80;0.50;;;7.90;99.90;;;;;;5014016;28;20030;-89
2023/11/24 01:50:19;;;;;;;8.02;0.50;;;7.90;99.90;;;;;;5018242;28;20037;-89
2023/11/24 01:52:45;;;;;;;6.15;0.50;;;8.00;99.90;;;;;;5018330;28;20464;-89
2023/11/24 01:55:16;;;;;;;4.72;0.32;;;8.00;99.90;;;;;;5017798;28;20029;-89
2023/11/24 01:57:42;;;;;;;5.50;0.43;;;8.00;99.90;;;;;;5010334;28;20545;-89
2023/11/24 02:00:13;;;;;;;5.40;0.50;;;8.00;99.90;;;;;;5015077;28;20037;-89
2023/11/24 02:02:40;;;;;;;8.93;0.45;;;8.00;99.90;;;;;;5018536;28;20076;-89
2023/11/24 02:05:06;;;;;;;6.68;0.50;;;8.00;99.90;;;;;;5004197;28;20100;-88
2023/11/24 02:07:32;;;;;;;13.77;1.65;;;8.00;99.90;;;;;;5021893;28;20022;-89
2023/11/24 02:09:59;;;;;;;6.13;0.40;;;8.00;99.90;;;;;;5020766;28;20382;-88
2023/11/24 02:12:24;;;;;;;6.30;0.63;;;8.00;99.90;;;;;;5023124;28;20026;-89
2023/11/24 02:14:50;;;;;;;9.25;0.60;;;8.00;99.90;;;;;;5023717;28;20022;-89
2023/11/24 02:17:15;;;;;;;6.22;0.65;;;8.00;99.90;;;;;;5016750;28;20071;-89
2023/11/24 02:19:42;;;;;;;6.82;0.50;;;8.00;99.90;;;;;;5014247;28;20057;-88
2023/11/24 02:22:08;;;;;;;7.63;0.40;;;8.00;99.90;;;;;;5009348;28;20022;-88
2023/11/24 02:24:33;;;;;;;6.97;0.40;;;8.00;99.90;;;;;;5017883;28;20037;-88
2023/11/24 02:26:59;;;;;;;5.78;0.50;;;8.00;99.90;;;;;;5019986;28;20063;-89
2023/11/24 02:29:25;;;;;;;9.88;1.17;;;8.00;99.90;;;;;;5007374;28;20037;-88
2023/11/24 02:31:50;;;;;;;7.40;0.68;;;8.00;99.90;;;;;;5020882;28;20079;-88
2023/11/24 02:34:16;;;;;;;5.88;0.80;;;8.10;99.90;;;;;;5017411;28;20033;-89
2023/11/24 02:36:43;;;;;;;4.30;0.40;;;8.10;99.90;;;;;;5018564;28;20048;-88
2023/11/24 02:39:08;;;;;;;7.95;0.60;;;8.10;99.90;;;;;;5021552;28;20118;-88
2023/11/24 02:41:34;;;;;;;3.30;0.30;;;8.10;99.90;;;;;;5013537;28;20026;-88
2023/11/24 02:44:00;;;;;;;11.48;0.30;;;8.10;99.90;;;;;;5015866;28;20053;-88
2023/11/24 02:46:25;;;;;;;4.85;0.40;;;8.10;99.90;;;;;;5013672;28;20029;-89
2023/11/24 02:48:51;;;;;;;3.92;0.40;;;8.10;99.90;;;;;;5033814;28;20390;-89
2023/11/24 02:51:18;;;;;;;6.80;0.47;;;8.10;99.90;;;;;;5000273;28;20025;-88
2023/11/24 02:53:44;;;;;;;9.43;0.43;;;8.00;99.90;;;;;;5017754;28;20032;-89
2023/11/24 02:56:11;;;;;;;5.82;0.40;;;8.00;99.90;;;;;;5017312;28;20029;-89
2023/11/24 02:58:37;;;;;;;5.45;0.38;;;8.00;99.90;;;;;;5012431;28;20039;-88
2023/11/24 03:01:03;;;;;;;6.97;0.30;;;8.00;99.90;;;;;;5011516;28;20032;-88
2023/11/24 03:03:29;;;;;;;6.07;0.50;;;7.90;99.90;;;;;;5016552;28;20060;-88
2023/11/24 03:05:55;;;;;;;7.05;0.38;;;7.90;99.90;;;;;;5013301;28;20445;-88
2023/11/24 03:08:22;;;;;;;6.32;0.30;;;7.90;99.90;;;;;;5020387;28;20469;-88
2023/11/24 03:10:49;;;;;;;4.15;0.50;;;7.80;99.90;;;;;;5028181;28;20132;-89
2023/11/24 03:13:14;;;;;;;9.10;0.40;;;7.70;99.90;;;;;;5033583;28;20036;-88
2023/11/24 03:15:41;;;;;;;6.20;0.60;;;7.70;99.90;;;;;;5022288;28;20026;-89
2023/11/24 03:18:07;;;;;;;6.50;0.30;;;7.60;99.90;;;;;;5026945;28;20029;-89
2023/11/24 03:20:33;;;;;;;5.32;0.30;;;7.50;99.90;;;;;;5015318;28;20029;-88
2023/11/24 03:22:58;;;;;;;10.55;0.75;;;7.40;99.90;;;;;;5031275;28;20152;-89
2023/11/24 03:25:24;;;;;;;3.17;0.35;;;7.40;99.90;;;;;;5019209;28;20036;-89
2023/11/24 03:27:50;;;;;;;3.63;0.40;;;7.30;99.90;;;;;;5015541;28;20025;-89
2023/11/24 03:30:15;;;;;;;10.30;0.50;;;7.30;99.90;;;;;;5017189;28;20026;-89
2023/11/24 03:32:41;;;;;;;4.68;0.30;;;7.20;99.90;;;;;;5015975;28;20112;-89
2023/11/24 03:35:07;;;;;;;6.72;0.85;;;7.20;99.90;;;;;;5006801;28;20040;-89
2023/11/24 03:37:33;;;;;;;5.30;0.32;;;7.10;99.90;;;;;;5013343;28;20108;-89
2023/11/24 03:39:58;;;;;;;4.85;0.30;;;7.10;99.90;;;;;;5015969;28;20481;-88
2023/11/24 03:42:24;;;;;;;5.95;0.50;;;7.00;99.90;;;;;;5019423;28;20112;-88
2023/11/24 03:44:49;;;;;;;6.70;0.85;;;7.00;99.90;;;;;;5022782;28;20140;-88
2023/11/24 03:47:16;;;;;;;5.38;0.77;;;6.90;99.90;;;;;;5015933;28;20026;-88
2023/11/24 03:49:42;;;;;;;7.18;0.50;;;6.90;99.90;;;;;;5015018;28;20454;-89
2023/11/24 03:52:08;;;;;;;5.05;0.32;;;6.90;99.90;;;;;;5033316;28;20112;-88
2023/11/24 03:54:33;;;;;;;5.70;0.40;;;7.00;99.90;;;;;;5009617;28;20120;-88
2023/11/24 03:56:59;;;;;;;4.13;0.30;;;7.00;99.90;;;;;;5024607;28;20036;-87
2023/11/24 03:59:25;;;;;;;7.25;0.30;;;7.00;99.90;;;;;;5015551;28;20392;-87
2023/11/24 04:01:50;;;;;;;4.40;0.60;;;7.00;99.90;;;;;;5013204;28;20104;-87
2023/11/24 04:04:16;;;;;;;6.32;0.40;;;6.90;99.90;;;;;;5007819;28;20029;-86
2023/11/24 04:06:41;;;;;;;7.93;0.30;;;6.80;99.90;;;;;;5018714;28;20479;-87
2023/11/24 04:09:07;;;;;;;11.93;0.50;;;6.70;99.90;;;;;;5016046;28;20535;-88
2023/11/24 04:11:33;;;;;;;7.40;0.50;;;6.70;99.90;;;;;;5020217;28;20025;-87
2023/11/24 04:13:58;;;;;;;7.97;0.40;;;6.70;99.90;;;;;;5016067;28;20497;-87
2023/11/24 04:16:25;;;;;;;5.30;0.73;;;6.70;99.90;;;;;;5016048;28;20026;-87
2023/11/24 04:18:50;;;;;;;7.03;0.50;;;6.70;99.90;;;;;;5025533;28;20099;-87
2023/11/24 04:21:16;;;;;;;6.32;0.50;;;6.70;99.90;;;;;;5006278;28;20087;-87
2023/11/24 04:23:42;;;;;;;5.95;0.32;;;6.80;99.90;;;;;;5015742;28;20036;-87
2023/11/24 04:26:07;;;;;;;7.85;0.43;;;6.80;99.90;;;;;;5017354;28;20029;-87
2023/11/24 04:28:33;;;;;;;6.60;0.40;;;6.80;99.90;;;;;;5015734;28;20116;-87
2023/11/24 04:30:59;;;;;;;7.00;0.50;;;6.80;99.90;;;;;;5007062;28;20026;-87
2023/11/24 04:33:24;;;;;;;4.40;0.75;;;6.70;99.90;;;;;;5015002;28;20519;-87
2023/11/24 04:35:50;;;;;;;7.15;0.50;;;6.70;99.90;;;;;;5013133;28;20022;-87
2023/11/24 04:38:16;;;;;;;10.82;0.57;;;6.60;99.90;;;;;;5032036;28;20045;-87
2023/11/24 04:40:43;;;;;;;5.00;0.30;;;6.60;99.90;;;;;;5014814;28;20068;-87
2023/11/24 04:43:08;;;;;;;7.30;0.60;;;6.60;99.90;;;;;;5014243;28;20022;-87
2023/11/24 04:45:35;;;;;;;8.48;0.50;;;6.60;99.90;;;;;;5021244;28;20117;-87
2023/11/24 04:48:04;;;;;;;9.25;0.57;;;6.60;99.90;;;;;;5021650;28;20452;-87
2023/11/24 04:50:29;;;;;;;8.55;0.47;;;6.50;99.90;;;;;;5014576;28;20021;-87
2023/11/24 04:52:55;;;;;;;8.55;1.13;;;6.50;99.90;;;;;;5023250;28;20033;-87
2023/11/24 04:55:20;;;;;;;8.52;0.40;;;6.60;99.90;;;;;;5014585;28;20461;-87
2023/11/24 04:57:49;;;;;;;11.73;0.68;;;6.60;99.90;;;;;;5020082;28;20041;-87
2023/11/24 05:00:17;;;;;;;5.50;0.50;;;6.70;99.90;;;;;;5023221;28;20061;-87
2023/11/24 05:02:43;;;;;;;6.57;0.60;;;6.80;99.90;;;;;;5009891;28;20060;-87
2023/11/24 05:05:09;;;;;;;8.57;0.50;;;6.90;99.90;;;;;;5014458;28;20065;-87
2023/11/24 05:07:34;;;;;;;15.25;0.80;;;6.90;99.90;;;;;;5032308;28;20163;-87
2023/11/24 05:10:00;;;;;;;10.40;0.60;;;6.80;99.90;;;;;;5017706;28;20033;-87
2023/11/24 05:12:25;;;;;;;4.90;0.47;;;6.90;99.90;;;;;;5020745;28;20037;-86
2023/11/24 05:14:51;;;;;;;5.60;0.40;;;6.90;99.90;;;;;;5013019;28;20108;-87
2023/11/24 05:17:17;;;;;;;5.00;0.50;;;6.90;99.90;;;;;;5022874;28;20109;-86
2023/11/24 05:19:43;;;;;;;6.07;0.40;;;6.80;99.90;;;;;;5017918;28;20039;-87
2023/11/24 05:22:08;;;;;;;5.22;0.30;;;6.80;99.90;;;;;;5018243;28;20528;-86
2023/11/24 05:24:34;;;;;;;7.22;1.08;;;6.80;99.90;;;;;;5021560;28;20069;-87
2023/11/24 05:27:00;;;;;;;7.50;0.88;;;6.70;99.90;;;;;;5018563;28;20026;-86
2023/11/24 05:29:25;;;;;;;6.07;0.40;;;6.60;99.90;;;;;;5015329;28;20025;-86
2023/11/24 05:31:51;;;;;;;5.45;0.35;;;6.50;99.90;;;;;;5021322;28;20504;-86
2023/11/24 05:34:16;;;;;;;9.25;0.80;;;6.30;99.90;;;;;;5015928;28;20413;-86
2023/11/24 05:36:44;;;;;;;5.50;0.30;;;6.20;99.90;;;;;;5013705;28;20445;-86
2023/11/24 05:39:11;;;;;;;7.05;0.70;;;6.10;99.90;;;;;;5018665;28;20060;-87
2023/11/24 05:41:37;;;;;;;9.60;0.50;;;6.10;99.90;;;;;;5035730;28;20024;-87
2023/11/24 05:44:04;;;;;;;4.00;0.47;;;6.10;99.90;;;;;;5035537;28;20527;-87
2023/11/24 05:46:30;;;;;;;6.80;0.40;;;6.00;99.90;;;;;;5018388;28;20025;-87
2023/11/24 05:48:56;;;;;;;7.70;0.70;;;6.00;99.90;;;;;;5032457;28;20034;-87
2023/11/24 05:51:22;;;;;;;12.77;0.52;;;6.10;99.90;;;;;;5014581;28;20180;-87
2023/11/24 05:53:47;;;;;;;8.75;0.70;;;6.00;99.90;;;;;;5020341;28;20025;-87
2023/11/24 05:56:13;;;;;;;9.35;0.70;;;6.00;99.90;;;;;;5006162;28;20040;-86
2023/11/24 05:58:38;;;;;;;5.65;0.50;;;6.00;99.90;;;;;;5017946;28;20132;-87
2023/11/24 06:01:04;;;;;;;10.38;0.45;;;6.10;99.90;;;;;;5013735;28;20033;-88
2023/11/24 06:03:30;;;;;;;7.50;0.57;;;6.10;99.90;;;;;;5017068;28;20030;-87
2023/11/24 06:05:56;;;;;;;10.77;0.52;;;6.10;99.90;;;;;;5017915;28;20375;-87
2023/11/24 06:08:22;;;;;;;10.63;0.55;;;6.10;99.90;;;;;;5019075;28;20039;-87
2023/11/24 06:10:47;;;;;;;10.85;0.60;;;6.20;99.90;;;;;;5019592;28;20029;-87
2023/11/24 06:13:13;;;;;;;8.55;0.50;;;6.20;99.90;;;;;;5022260;28;20053;-87
2023/11/24 06:15:39;;;;;;;4.07;0.57;;;6.30;99.90;;;;;;5022469;28;20018;-87
2023/11/24 06:18:05;;;;;;;5.95;0.30;;;6.30;99.90;;;;;;5014531;28;20036;-87
2023/11/24 06:20:30;;;;;;;8.63;0.52;;;6.30;99.90;;;;;;5018893;28;20024;-86
2023/11/24 06:22:56;;;;;;;5.68;0.30;;;6.30;99.90;;;;;;5037064;28;20025;-86
2023/11/24 06:25:21;;;;;;;7.47;0.40;;;6.30;99.90;;;;;;5017537;28;20108;-87
2023/11/24 06:27:47;;;;;;;10.07;0.60;;;6.30;99.90;;;;;;5018649;28;20032;-87
2023/11/24 06:30:13;;;;;;;5.43;1.05;;;6.20;99.90;;;;;;5014153;28;20033;-87
2023/11/24 06:32:39;;;;;;;8.88;0.60;;;6.30;99.90;;;;;;5018813;28;20029;-86
2023/11/24 06:35:09;;;;;;;5.68;0.40;;;6.30;99.90;;;;;;5034526;28;20028;-86
2023/11/24 06:37:40;;;;;;;10.85;0.95;;;6.30;99.90;;;;;;5012819;28;20057;-87
2023/11/24 06:40:07;;;;;;;3.05;0.20;;;6.30;99.90;;;;;;5020722;28;20394;-84
2023/11/24 06:42:32;;;;;;;6.80;0.65;;;6.30;99.90;;;;;;5014796;28;20025;-85
2023/11/24 06:44:58;;;;;;;11.02;0.43;;;6.10;99.90;;;;;;5017784;28;20032;-85
2023/11/24 06:47:23;;;;;;;4.47;0.30;;;6.00;99.90;;;;;;5009663;28;20034;-85
2023/11/24 06:49:53;;;;;;;4.32;0.30;;;5.90;99.90;;;;;;5036319;28;20093;-86
2023/11/24 06:52:18;;;;;;;12.90;1.73;;;5.80;99.90;;;;;;5017028;28;20026;-85
2023/11/24 06:54:44;;;;;;;8.48;0.35;;;5.70;99.90;;;;;;5016734;28;20113;-86
2023/11/24 06:57:10;;;;;;;3.45;0.30;;;5.70;99.90;;;;;;5015089;28;20045;-86
2023/11/24 06:59:35;;;;;;;5.55;0.50;;;5.70;99.90;;;;;;5022364;28;20622;-87
2023/11/24 07:02:03;;;;;;;3.95;0.30;;;5.70;99.90;;;;;;5016514;28;20397;-86
2023/11/24 07:04:29;;;;;;;4.85;0.60;;;5.70;99.90;;;;;;5013178;28;20029;-85
2023/11/24 07:06:54;;;;;;;3.72;0.60;;;5.70;99.90;;;;;;5024739;28;20389;-85
2023/11/24 07:09:21;;;;;;;4.97;0.30;;;5.60;99.90;;;;;;5032772;28;20065;-85
2023/11/24 07:11:47;;;;;;;5.80;0.50;;;5.60;99.90;;;;;;5014408;28;20539;-86
2023/11/24 07:14:13;;;;;;;4.78;0.28;;;5.50;99.90;;;;;;5014549;28;20022;-86
2023/11/24 07:16:38;;;;;;;4.20;0.30;;;5.50;99.90;;;;;;5015648;28;20029;-86
2023/11/24 07:19:05;;;;;;;6.57;0.40;;;5.50;99.90;;;;;;5025170;28;20041;-86
2023/11/24 07:21:31;;;;;;;3.40;0.38;;;5.50;99.90;;;;;;5018681;28;20029;-86
2023/11/24 07:23:56;;;;;;;4.43;0.30;;;5.40;99.90;;;;;;5013988;28;20507;-87
2023/11/24 07:26:22;;;;;;;4.78;0.30;;;5.40;99.90;;;;;;5027377;28;20033;-87
2023/11/24 07:28:47;;;;;;;4.72;0.38;;;5.40;99.90;;;;;;5015564;28;20107;-87
2023/11/24 07:31:20;;;;;;;6.88;0.30;;;5.30;99.90;;;;;;5030670;28;20025;-87
2023/11/24 07:33:48;;;;;;;3.53;0.38;;;5.30;99.90;;;;;;5012666;28;20354;-87
2023/11/24 07:36:18;;;;;;;6.43;0.20;;;5.30;99.90;;;;;;5019682;28;20030;-87
2023/11/24 07:38:44;;;;;;;13.80;0.40;;;5.20;99.90;;;;;;5013778;28;20049;-87
2023/11/24 07:41:10;;;;;;;7.93;0.65;;;5.30;99.90;;;;;;5008910;28;20033;-87
2023/11/24 07:43:36;;;;;;;8.77;0.98;;;5.20;99.90;;;;;;5005825;28;20033;-87
2023/11/24 07:46:06;;;;;;;3.05;0.20;;;5.30;99.90;;;;;;5021946;28;20104;-87
2023/11/24 07:48:35;;;;;;;6.05;0.40;;;5.30;99.90;;;;;;5017972;28;20076;-87
2023/11/24 07:51:01;;;;;;;5.75;0.35;;;5.40;99.90;;;;;;5017823;28;20026;-87
2023/11/24 07:53:27;;;;;;;10.27;0.63;;;5.40;99.90;;;;;;5011004;28;20043;-87
2023/11/24 07:55:52;;;;;;;6.85;0.73;;;5.50;99.90;;;;;;5016315;28;20113;-88
2023/11/24 07:58:19;;;;;;;7.00;0.50;;;5.50;99.90;;;;;;5012892;28;20124;-86
2023/11/24 08:00:45;;;;;;;6.80;0.57;;;5.50;99.90;;;;;;5015002;28;20453;-87
2023/11/24 08:03:11;;;;;;;8.82;0.77;;;5.60;99.90;;;;;;5015081;28;20061;-86
2023/11/24 08:05:36;;;;;;;6.20;0.40;;;5.60;99.90;;;;;;5034612;28;20032;-86
2023/11/24 08:08:02;;;;;;;4.45;1.20;;;5.60;99.90;;;;;;5010301;28;20025;-84
2023/11/24 08:10:27;;;;;;;5.45;0.22;;;5.60;99.90;;;;;;5009534;28;20053;-86
2023/11/24 08:12:53;;;;;;;3.65;0.28;;;5.50;99.90;;;;;;5009628;28;20021;-85
2023/11/24 08:15:19;;;;;;;7.45;0.47;;;5.40;99.90;;;;;;5010665;28;20029;-86
2023/11/24 08:17:44;;;;;;;5.32;0.30;;;5.30;99.90;;;;;;5022428;28;20179;-86
2023/11/24 08:20:11;;;;;;;3.83;0.25;;;5.20;99.90;;;;;;5015389;28;20114;-86
2023/11/24 08:22:39;;;;;;;4.18;1.35;;;5.30;99.90;;;;;;5013233;28;20071;-86
2023/11/24 08:25:09;;;;;;;4.68;0.55;;;5.20;99.90;;;;;;5013981;28;20030;-86
2023/11/24 08:27:35;;;;;;;3.38;0.20;;;5.30;99.90;;;;;;5008688;28;20022;-86
2023/11/24 08:30:10;;;;;;;4.43;0.28;;;5.20;99.90;;;;;;5012175;28;20033;-85
2023/11/24 08:32:40;;;;;;;6.97;0.32;;;5.20;99.90;;;;;;5009784;28;20033;-85
2023/11/24 08:35:06;;;;;;;5.53;0.20;;;5.20;99.90;;;;;;5010544;28;20029;-85
2023/11/24 08:37:34;;;;;;;6.15;0.50;;;5.20;99.90;;;;;;5003191;28;20064;-85
2023/11/24 08:40:01;;;;;;;9.07;0.40;;;5.20;99.90;;;;;;5006398;28;20048;-85
2023/11/24 08:42:26;;;;;;;7.47;0.60;;;5.20;99.90;;;;;;5006760;28;20034;-85
2023/11/24 08:44:52;;;;;;;10.48;1.17;;;5.20;99.90;;;;;;5007495;28;20018;-86
2023/11/24 08:47:18;;;;;;;5.28;0.55;;;5.30;99.90;;;;;;5018005;28;20120;-86
2023/11/24 08:49:43;;;;;;;7.00;1.08;;;5.40;99.90;;;;;;5016501;28;20028;-86
2023/11/24 08:52:09;;;;;;;6.22;0.40;;;5.50;99.90;;;;;;5030400;28;20021;-86
2023/11/24 08:54:36;;;;;;;8.50;0.80;;;5.60;99.90;;;;;;5019924;28;20017;-85
2023/11/24 08:57:04;;;;;;;6.95;0.32;;;5.70;99.90;;;;;;5016954;28;20468;-86
2023/11/24 08:59:29;;;;;;;5.88;0.40;;;5.70;99.90;;;;;;5009256;28;20064;-86
2023/11/24 09:01:55;;;;;;;7.05;0.52;;;5.80;99.90;;;;;;5013708;28;20095;-86
2023/11/24 09:04:22;;;;;;;4.75;0.22;;;5.80;99.90;;;;;;5007266;28;20029;-85
2023/11/24 09:06:47;;;;;;;7.85;0.30;;;5.80;99.90;;;;;;5017257;28;20033;-86
2023/11/24 09:09:13;;;;;;;3.80;0.40;;;5.90;99.90;;;;;;5027246;28;20478;-86
2023/11/24 09:11:40;;;;;;;7.75;0.30;;;5.90;99.90;;;;;;5017917;28;20029;-86
2023/11/24 09:14:06;;;;;;;2.60;0.28;;;5.90;99.90;;;;;;5012372;28;20193;-86
2023/11/24 09:16:32;;;;;;;8.52;0.30;;;6.00;99.90;;;;;;5016172;28;20124;-87
2023/11/24 09:18:58;;;;;;;9.60;0.30;;;5.90;99.90;;;;;;5011850;28;20058;-87
2023/11/24 09:21:24;;;;;;;4.80;0.30;;;5.90;99.90;;;;;;5015045;28;20029;-86
2023/11/24 09:23:50;;;;;;;4.45;0.30;;;5.80;99.90;;;;;;5028619;28;20024;-85
2023/11/24 09:26:15;;;;;;;2.63;0.20;;;5.60;99.90;;;;;;5011823;28;20136;-86
2023/11/24 09:28:41;;;;;;;3.15;0.30;;;5.40;99.90;;;;;;5041108;28;20087;-85
2023/11/24 09:31:12;;;;;;;2.40;0.20;;;5.30;99.90;;;;;;5022401;28;20025;-86
2023/11/24 09:33:38;;;;;;;3.00;0.20;;;5.10;99.90;;;;;;5017343;28;20104;-86
2023/11/24 09:36:05;;;;;;;2.47;0.10;;;5.00;99.90;;;;;;5007329;28;20045;-86
2023/11/24 09:38:30;;;;;;;3.35;0.10;;;5.00;99.90;;;;;;5009721;28;20751;-86
2023/11/24 09:41:11;;;;;;;4.72;0.10;;;5.00;99.90;;;;;;5023834;28;20036;-86
2023/11/24 09:43:40;;;;;;;1.58;0.10;;;5.00;99.90;;;;;;5014395;28;20029;-87
2023/11/24 09:46:10;;;;;;;1.67;0.22;;;5.10;99.90;;;;;;5008083;28;20258;-85
2023/11/24 09:48:44;;;;;;;4.10;0.20;;;5.20;99.90;;;;;;5013929;28;20029;-86
2023/11/24 09:51:12;;;;;;;7.18;0.20;;;5.30;99.90;;;;;;5012441;28;20018;-86
2023/11/24 09:53:40;;;;;;;3.20;0.10;;;5.40;99.90;;;;;;5027314;28;20112;-86
2023/11/24 09:56:07;;;;;;;1.88;0.10;;;5.60;99.90;;;;;;5021927;28;20017;-86
2023/11/24 09:58:34;;;;;;;5.93;0.20;;;5.70;99.90;;;;;;5021423;28;20095;-86
2023/11/24 10:01:09;;;;;;;7.47;0.10;;;5.80;99.90;;;;;;5021786;28;20033;-87
2023/11/24 10:03:38;;;;;;;6.65;0.40;;;5.90;99.90;;;;;;5018457;28;20037;-91
2023/11/24 10:06:07;;;;;;;5.50;0.10;;;5.90;99.90;;;;;;5011641;28;20026;-91
2023/11/24 10:08:35;;;;;;;4.68;0.20;;;6.00;99.90;;;;;;5019117;28;20083;-95
2023/11/24 10:11:28;;;;;;;9.30;0.70;;;6.20;99.90;;;;;;5017628;28;20449;-86
2023/11/24 10:13:53;;;;;;;;;;;6.20;99.90;;;;;;5018341;28;20071;-85
2023/11/24 10:16:19;;;;;;;6.72;0.30;;;6.10;99.90;;;;;;5017090;28;19909;-86
2023/11/24 10:18:46;;;;;;;6.15;0.40;;;5.90;99.90;;;;;;5034512;28;20029;-85
2023/11/24 10:21:11;;;;;;;2.10;0.17;;;5.50;99.90;;;;;;5016152;28;20035;-85
2023/11/24 10:23:38;;;;;;;1.90;0.10;;;5.30;99.90;;;;;;5031620;28;20462;-87
2023/11/24 10:26:15;;;;;;;2.60;0.15;;;5.00;99.90;;;;;;5034933;28;20032;-87
2023/11/24 10:28:41;;;;;;;3.75;0.22;;;4.80;99.90;;;;;;5014775;28;20034;-87
2023/11/24 10:31:07;;;;;;;5.25;0.60;;;4.70;99.90;;;;;;5017186;28;20025;-87
2023/11/24 10:33:33;;;;;;;7.32;0.20;;;4.70;99.90;;;;;;5017144;28;20108;-88
2023/11/24 10:35:59;;;;;;;3.88;0.52;;;4.70;99.90;;;;;;5017303;28;20075;-88
2023/11/24 10:38:31;;;;;;;2.72;0.10;;;4.80;99.90;;;;;;5016959;28;20465;-88
2023/11/24 10:40:58;;;;;;;9.23;0.45;;;4.80;99.90;;;;;;5028223;28;20029;-87
2023/11/24 10:43:24;;;;;;;4.75;0.40;;;4.80;99.90;;;;;;5011840;28;20050;-87
2023/11/24 10:45:51;;;;;;;4.35;0.30;;;4.80;99.90;;;;;;5012754;28;20022;-87
2023/11/24 10:48:21;;;;;;;9.60;0.80;;;4.90;99.90;;;;;;5003348;28;20094;-87
2023/11/24 10:51:17;;;;;;;3.83;0.30;;;5.00;99.90;;;;;;5000567;28;20030;-87
2023/11/24 10:53:52;;;;;;;7.00;0.38;;;5.20;99.90;;;;;;4976058;28;20046;-86
2023/11/24 10:56:20;;;;;;;6.72;0.45;;;5.50;99.90;;;;;;5016807;28;20120;-87
2023/11/24 10:58:51;;;;;;;6.30;0.98;;;5.50;99.90;;;;;;5021515;28;20504;-87
2023/11/24 11:01:22;;;;;;;8.50;0.63;;;5.50;99.90;;;;;;5007178;28;20508;-86
2023/11/24 11:03:55;;;;;;;4.50;0.57;;;5.50;99.90;;;;;;5016725;28;20033;-87
2023/11/24 11:06:26;;;;;;;8.70;1.05;;;5.50;99.90;;;;;;5018947;28;20543;-86
2023/11/24 11:09:08;;;;;;;8.73;0.40;;;5.50;99.90;;;;;;5028148;28;20026;-86
2023/11/24 11:11:51;;;;;;;8.50;0.60;;;5.50;99.90;;;;;;5014889;28;20030;-87
2023/11/24 11:14:18;;;;;;;;;;;5.50;99.90;;;;;;5013587;28;20048;-87
2023/11/24 11:16:44;;;;;;;7.25;0.50;;;5.60;99.90;;;;;;5002673;28;19905;-87
2023/11/24 11:19:32;;;;;;;10.93;0.65;;;5.70;99.90;;;;;;5023949;28;20041;-83
2023/11/24 11:22:01;;;;;;;9.23;0.63;;;5.70;99.90;;;;;;5016308;28;20100;-83
2023/11/24 11:24:30;;;;;;;7.57;0.70;;;5.80;99.90;;;;;;5014695;28;20044;-84
2023/11/24 11:26:57;;;;;;;10.40;0.40;;;5.80;99.90;;;;;;5011247;28;20018;-84
2023/11/24 11:29:31;;;;;;;14.02;0.82;;;5.80;99.90;;;;;;5012012;28;20496;-84
2023/11/24 11:31:57;;;;;;;10.32;0.40;;;5.60;99.90;;;;;;5015930;28;20025;-84
2023/11/24 11:34:29;;;;;;;9.82;0.93;;;5.50;99.90;;;;;;5016068;28;21159;-83
2023/11/24 11:37:13;;;;;;;9.15;0.63;;;5.30;99.90;;;;;;5014366;28;20492;-86
2023/11/24 11:39:53;;;;;;;11.73;0.88;;;5.30;99.90;;;;;;5012322;28;20037;-86
2023/11/24 11:42:22;;;;;;;10.10;0.40;;;5.20;99.90;;;;;;5001128;28;20033;-86
2023/11/24 11:44:53;;;;;;;6.53;0.40;;;5.20;99.90;;;;;;5027033;28;20080;-86
2023/11/24 11:47:22;;;;;;;8.75;0.45;;;5.20;99.90;;;;;;5005589;28;20026;-86
2023/11/24 11:49:51;;;;;;;10.45;0.65;;;5.20;99.90;;;;;;5009016;28;20025;-86
2023/11/24 11:52:19;;;;;;;8.85;0.43;;;5.30;99.90;;;;;;5012062;28;20061;-86
2023/11/24 11:54:47;;;;;;;10.45;0.57;;;5.30;99.90;;;;;;5011447;28;20067;-86
2023/11/24 11:57:13;;;;;;;7.15;1.05;;;5.40;99.90;;;;;;5027747;28;20030;-86
2023/11/24 11:59:39;;;;;;;16.00;1.58;;;5.60;99.90;;;;;;5005363;28;20061;-84
2023/11/24 12:02:06;;;;;;;13.50;1.40;;;5.90;99.90;;;;;;5003959;28;20877;-84
2023/11/24 12:04:33;;;;;;;12.07;0.60;;;6.10;99.90;;;;;;5011804;28;20079;-84
2023/11/24 12:07:00;;;;;;;8.18;0.70;;;6.30;99.90;;;;;;5042565;28;20139;-84
2023/11/24 12:09:25;;;;;;;11.05;0.95;;;6.40;99.90;;;;;;5014471;28;20022;-85
2023/11/24 12:11:51;;;;;;;12.18;1.05;;;6.20;99.90;;;;;;5019430;28;20094;-86
2023/11/24 12:14:16;;;;;;;8.82;0.52;;;5.70;99.90;;;;;;5021500;28;20025;-86
2023/11/24 12:16:42;;;;;;;8.38;0.50;;;5.40;99.90;;;;;;5015126;28;20496;-86
2023/11/24 12:19:08;;;;;;;10.93;0.88;;;5.20;99.90;;;;;;5034308;28;20040;-86
2023/11/24 12:21:39;;;;;;;12.80;0.60;;;5.20;99.90;;;;;;5025509;28;20100;-86
2023/11/24 12:24:05;;;;;;;13.98;0.70;;;5.30;99.90;;;;;;5032000;28;20030;-86
2023/11/24 12:26:34;;;;;;;8.43;0.73;;;5.40;99.90;;;;;;5014879;28;20029;-86
2023/11/24 12:28:59;;;;;;;15.05;0.57;;;5.40;99.90;;;;;;5042877;28;20037;-86
2023/11/24 12:31:31;;;;;;;11.30;0.85;;;5.40;99.90;;;;;;5029464;28;20445;-86
2023/11/24 12:33:56;;;;;;;10.20;0.57;;;5.50;99.90;;;;;;5018485;28;20063;-86
2023/11/24 12:36:24;;;;;;;6.95;0.43;;;5.70;99.90;;;;;;5025733;28;20045;-86
2023/11/24 12:38:50;;;;;;;14.13;0.73;;;5.90;99.90;;;;;;5019675;28;20049;-86
2023/11/24 12:41:16;;;;;;;12.02;0.47;;;6.00;99.90;;;;;;5019832;28;20037;-86
2023/11/24 12:43:42;;;;;;;15.75;0.65;;;6.10;99.90;;;;;;5031274;28;20033;-87
2023/11/24 12:46:21;;;;;;;9.98;0.70;;;6.20;99.90;;;;;;5018388;28;20125;-87
2023/11/24 12:48:47;;;;;;;10.50;0.70;;;6.20;99.90;;;;;;5022258;28;20036;-87
2023/11/24 12:51:14;;;;;;;11.25;0.93;;;6.20;99.90;;;;;;5010944;28;20036;-87
2023/11/24 12:53:40;;;;;;;12.60;1.08;;;6.20;99.90;;;;;;5006201;28;20028;-87